sensor_id;sensor_type;location;lat;lon;timestamp;P1;durP1;ratioP1;P2;durP2;ratioP2
25073;SDS011;13066;52.042;5.648;2023-08-08T00:00:37;17.30;;;4.60;;
25073;SDS011;13066;52.042;5.648;2023-08-08T00:03:05;13.50;;;4.03;;
25073;SDS011;13066;52.042;5.648;2023-08-08T00:05:36;13.70;;;4.20;;
25073;SDS011;13066;52.042;5.648;2023-08-08T00:08:04;16.52;;;4.13;;
25073;SDS011;13066;52.042;5.648;2023-08-08T00:10:32;14.93;;;4.43;;
25073;SDS011;13066;52.042;5.648;2023-08-08T00:13:00;11.95;;;3.92;;
25073;SDS011;13066;52.042;5.648;2023-08-08T00:15:28;15.15;;;4.20;;
25073;SDS011;13066;52.042;5.648;2023-08-08T00:17:57;12.55;;;4.07;;
25073;SDS011;13066;52.042;5.648;2023-08-08T00:20:24;17.92;;;3.80;;
25073;SDS011;13066;52.042;5.648;2023-08-08T00:22:54;14.43;;;4.22;;
25073;SDS011;13066;52.042;5.648;2023-08-08T00:25:22;15.13;;;3.90;;
25073;SDS011;13066;52.042;5.648;2023-08-08T00:27:50;11.10;;;3.95;;
25073;SDS011;13066;52.042;5.648;2023-08-08T00:30:18;8.80;;;4.13;;
25073;SDS011;13066;52.042;5.648;2023-08-08T00:32:46;10.63;;;4.13;;
25073;SDS011;13066;52.042;5.648;2023-08-08T00:35:14;13.95;;;4.53;;
25073;SDS011;13066;52.042;5.648;2023-08-08T00:37:42;13.38;;;4.05;;
25073;SDS011;13066;52.042;5.648;2023-08-08T00:40:11;18.30;;;4.07;;
25073;SDS011;13066;52.042;5.648;2023-08-08T00:42:39;17.20;;;4.45;;
25073;SDS011;13066;52.042;5.648;2023-08-08T00:45:07;13.82;;;4.22;;
25073;SDS011;13066;52.042;5.648;2023-08-08T00:47:36;13.82;;;4.28;;
25073;SDS011;13066;52.042;5.648;2023-08-08T00:50:04;15.00;;;4.30;;
25073;SDS011;13066;52.042;5.648;2023-08-08T00:52:33;19.90;;;4.15;;
25073;SDS011;13066;52.042;5.648;2023-08-08T00:55:02;15.82;;;4.10;;
25073;SDS011;13066;52.042;5.648;2023-08-08T00:57:31;13.95;;;4.40;;
25073;SDS011;13066;52.042;5.648;2023-08-08T01:00:01;17.95;;;4.75;;
25073;SDS011;13066;52.042;5.648;2023-08-08T01:02:30;17.02;;;4.68;;
25073;SDS011;13066;52.042;5.648;2023-08-08T01:04:58;17.73;;;5.15;;
25073;SDS011;13066;52.042;5.648;2023-08-08T01:07:29;16.23;;;5.07;;
25073;SDS011;13066;52.042;5.648;2023-08-08T01:10:00;10.70;;;4.25;;
25073;SDS011;13066;52.042;5.648;2023-08-08T01:12:35;11.38;;;4.40;;
25073;SDS011;13066;52.042;5.648;2023-08-08T01:15:08;12.18;;;4.38;;
25073;SDS011;13066;52.042;5.648;2023-08-08T01:17:37;15.18;;;4.53;;
25073;SDS011;13066;52.042;5.648;2023-08-08T01:20:06;12.02;;;4.72;;
25073;SDS011;13066;52.042;5.648;2023-08-08T01:22:36;18.67;;;4.82;;
25073;SDS011;13066;52.042;5.648;2023-08-08T01:25:08;14.20;;;5.28;;
25073;SDS011;13066;52.042;5.648;2023-08-08T01:27:37;10.90;;;4.60;;
25073;SDS011;13066;52.042;5.648;2023-08-08T01:30:06;13.80;;;4.45;;
25073;SDS011;13066;52.042;5.648;2023-08-08T01:32:38;11.98;;;4.80;;
25073;SDS011;13066;52.042;5.648;2023-08-08T01:35:07;23.23;;;4.85;;
25073;SDS011;13066;52.042;5.648;2023-08-08T01:37:36;8.77;;;4.57;;
25073;SDS011;13066;52.042;5.648;2023-08-08T01:40:09;16.67;;;5.15;;
25073;SDS011;13066;52.042;5.648;2023-08-08T01:42:38;14.07;;;4.72;;
25073;SDS011;13066;52.042;5.648;2023-08-08T01:45:08;16.73;;;4.95;;
25073;SDS011;13066;52.042;5.648;2023-08-08T01:47:36;18.83;;;4.45;;
25073;SDS011;13066;52.042;5.648;2023-08-08T01:50:05;13.10;;;4.32;;
25073;SDS011;13066;52.042;5.648;2023-08-08T01:52:35;15.63;;;4.78;;
25073;SDS011;13066;52.042;5.648;2023-08-08T01:55:03;10.43;;;4.88;;
25073;SDS011;13066;52.042;5.648;2023-08-08T01:57:33;18.55;;;4.72;;
25073;SDS011;13066;52.042;5.648;2023-08-08T02:00:01;15.82;;;4.47;;
25073;SDS011;13066;52.042;5.648;2023-08-08T02:02:40;12.30;;;4.50;;
25073;SDS011;13066;52.042;5.648;2023-08-08T02:05:08;13.80;;;4.10;;
25073;SDS011;13066;52.042;5.648;2023-08-08T02:07:36;16.70;;;4.57;;
25073;SDS011;13066;52.042;5.648;2023-08-08T02:10:04;17.95;;;4.55;;
25073;SDS011;13066;52.042;5.648;2023-08-08T02:12:34;19.60;;;4.32;;
25073;SDS011;13066;52.042;5.648;2023-08-08T02:15:02;15.68;;;4.55;;
25073;SDS011;13066;52.042;5.648;2023-08-08T02:17:31;18.63;;;4.80;;
25073;SDS011;13066;52.042;5.648;2023-08-08T02:19:59;16.20;;;5.15;;
25073;SDS011;13066;52.042;5.648;2023-08-08T02:22:27;19.15;;;4.45;;
25073;SDS011;13066;52.042;5.648;2023-08-08T02:24:55;22.20;;;4.60;;
25073;SDS011;13066;52.042;5.648;2023-08-08T02:27:23;19.50;;;4.30;;
25073;SDS011;13066;52.042;5.648;2023-08-08T02:29:52;16.20;;;5.03;;
25073;SDS011;13066;52.042;5.648;2023-08-08T02:32:20;17.60;;;4.50;;
25073;SDS011;13066;52.042;5.648;2023-08-08T02:34:48;16.27;;;5.20;;
25073;SDS011;13066;52.042;5.648;2023-08-08T02:37:16;10.20;;;4.28;;
25073;SDS011;13066;52.042;5.648;2023-08-08T02:39:44;18.90;;;4.53;;
25073;SDS011;13066;52.042;5.648;2023-08-08T02:42:14;17.67;;;4.82;;
25073;SDS011;13066;52.042;5.648;2023-08-08T02:44:43;18.60;;;4.72;;
25073;SDS011;13066;52.042;5.648;2023-08-08T02:47:13;15.18;;;4.63;;
25073;SDS011;13066;52.042;5.648;2023-08-08T02:49:41;18.27;;;4.80;;
25073;SDS011;13066;52.042;5.648;2023-08-08T02:52:10;16.00;;;4.40;;
25073;SDS011;13066;52.042;5.648;2023-08-08T02:54:38;19.17;;;5.15;;
25073;SDS011;13066;52.042;5.648;2023-08-08T02:57:06;12.55;;;4.57;;
25073;SDS011;13066;52.042;5.648;2023-08-08T02:59:37;11.15;;;4.40;;
25073;SDS011;13066;52.042;5.648;2023-08-08T03:02:06;18.63;;;4.63;;
25073;SDS011;13066;52.042;5.648;2023-08-08T03:04:38;16.42;;;4.75;;
25073;SDS011;13066;52.042;5.648;2023-08-08T03:07:07;17.67;;;4.85;;
25073;SDS011;13066;52.042;5.648;2023-08-08T03:09:36;12.77;;;4.70;;
25073;SDS011;13066;52.042;5.648;2023-08-08T03:12:07;14.93;;;4.82;;
25073;SDS011;13066;52.042;5.648;2023-08-08T03:14:36;15.70;;;5.22;;
25073;SDS011;13066;52.042;5.648;2023-08-08T03:17:05;13.85;;;4.85;;
25073;SDS011;13066;52.042;5.648;2023-08-08T03:19:33;20.67;;;5.20;;
25073;SDS011;13066;52.042;5.648;2023-08-08T03:22:03;16.38;;;5.55;;
25073;SDS011;13066;52.042;5.648;2023-08-08T03:24:35;15.73;;;4.82;;
25073;SDS011;13066;52.042;5.648;2023-08-08T03:27:03;15.15;;;5.40;;
25073;SDS011;13066;52.042;5.648;2023-08-08T03:29:31;14.10;;;4.65;;
25073;SDS011;13066;52.042;5.648;2023-08-08T03:31:59;21.85;;;5.93;;
25073;SDS011;13066;52.042;5.648;2023-08-08T03:34:30;18.55;;;5.72;;
25073;SDS011;13066;52.042;5.648;2023-08-08T03:36:58;18.88;;;5.70;;
25073;SDS011;13066;52.042;5.648;2023-08-08T03:39:28;21.63;;;5.75;;
25073;SDS011;13066;52.042;5.648;2023-08-08T03:41:56;19.00;;;6.18;;
25073;SDS011;13066;52.042;5.648;2023-08-08T03:44:24;19.65;;;6.30;;
25073;SDS011;13066;52.042;5.648;2023-08-08T03:46:52;13.93;;;5.88;;
25073;SDS011;13066;52.042;5.648;2023-08-08T03:49:35;22.05;;;6.70;;
25073;SDS011;13066;52.042;5.648;2023-08-08T03:52:03;22.90;;;6.40;;
25073;SDS011;13066;52.042;5.648;2023-08-08T03:54:33;17.08;;;6.43;;
25073;SDS011;13066;52.042;5.648;2023-08-08T03:57:00;15.48;;;6.43;;
25073;SDS011;13066;52.042;5.648;2023-08-08T03:59:28;14.30;;;6.03;;
25073;SDS011;13066;52.042;5.648;2023-08-08T04:01:56;21.73;;;6.93;;
25073;SDS011;13066;52.042;5.648;2023-08-08T04:04:25;23.83;;;6.63;;
25073;SDS011;13066;52.042;5.648;2023-08-08T04:06:53;20.58;;;7.10;;
25073;SDS011;13066;52.042;5.648;2023-08-08T04:09:21;15.98;;;6.35;;
25073;SDS011;13066;52.042;5.648;2023-08-08T04:11:50;20.02;;;7.22;;
25073;SDS011;13066;52.042;5.648;2023-08-08T04:14:18;17.02;;;6.90;;
25073;SDS011;13066;52.042;5.648;2023-08-08T04:16:47;19.13;;;6.30;;
25073;SDS011;13066;52.042;5.648;2023-08-08T04:19:15;20.90;;;7.22;;
25073;SDS011;13066;52.042;5.648;2023-08-08T04:21:43;24.10;;;6.80;;
25073;SDS011;13066;52.042;5.648;2023-08-08T04:24:11;15.50;;;6.82;;
25073;SDS011;13066;52.042;5.648;2023-08-08T04:26:39;19.80;;;6.63;;
25073;SDS011;13066;52.042;5.648;2023-08-08T04:29:08;17.25;;;6.95;;
25073;SDS011;13066;52.042;5.648;2023-08-08T04:31:36;20.85;;;6.63;;
25073;SDS011;13066;52.042;5.648;2023-08-08T04:34:04;19.73;;;7.45;;
25073;SDS011;13066;52.042;5.648;2023-08-08T04:36:32;22.83;;;7.50;;
25073;SDS011;13066;52.042;5.648;2023-08-08T04:39:00;20.33;;;6.90;;
25073;SDS011;13066;52.042;5.648;2023-08-08T04:41:28;19.65;;;7.60;;
25073;SDS011;13066;52.042;5.648;2023-08-08T04:43:56;16.98;;;6.47;;
25073;SDS011;13066;52.042;5.648;2023-08-08T04:46:25;19.52;;;7.40;;
25073;SDS011;13066;52.042;5.648;2023-08-08T04:48:53;21.20;;;7.15;;
25073;SDS011;13066;52.042;5.648;2023-08-08T04:51:23;18.83;;;7.13;;
25073;SDS011;13066;52.042;5.648;2023-08-08T04:53:51;20.05;;;7.20;;
25073;SDS011;13066;52.042;5.648;2023-08-08T04:56:19;22.25;;;7.60;;
25073;SDS011;13066;52.042;5.648;2023-08-08T04:58:47;17.95;;;6.47;;
25073;SDS011;13066;52.042;5.648;2023-08-08T05:01:15;15.32;;;6.65;;
25073;SDS011;13066;52.042;5.648;2023-08-08T05:03:45;24.13;;;6.93;;
25073;SDS011;13066;52.042;5.648;2023-08-08T05:06:15;16.67;;;6.57;;
25073;SDS011;13066;52.042;5.648;2023-08-08T05:08:42;17.55;;;6.63;;
25073;SDS011;13066;52.042;5.648;2023-08-08T05:11:10;23.38;;;7.10;;
25073;SDS011;13066;52.042;5.648;2023-08-08T05:13:38;20.08;;;7.32;;
25073;SDS011;13066;52.042;5.648;2023-08-08T05:16:06;25.35;;;7.00;;
25073;SDS011;13066;52.042;5.648;2023-08-08T05:18:34;20.83;;;7.22;;
25073;SDS011;13066;52.042;5.648;2023-08-08T05:21:04;20.08;;;6.95;;
25073;SDS011;13066;52.042;5.648;2023-08-08T05:23:32;17.45;;;6.60;;
25073;SDS011;13066;52.042;5.648;2023-08-08T05:26:00;18.67;;;7.22;;
25073;SDS011;13066;52.042;5.648;2023-08-08T05:28:28;25.05;;;6.97;;
25073;SDS011;13066;52.042;5.648;2023-08-08T05:30:55;20.27;;;7.03;;
25073;SDS011;13066;52.042;5.648;2023-08-08T05:33:24;24.13;;;7.47;;
25073;SDS011;13066;52.042;5.648;2023-08-08T05:35:53;17.13;;;7.03;;
25073;SDS011;13066;52.042;5.648;2023-08-08T05:38:22;20.05;;;6.65;;
25073;SDS011;13066;52.042;5.648;2023-08-08T05:40:50;18.50;;;6.93;;
25073;SDS011;13066;52.042;5.648;2023-08-08T05:43:18;19.45;;;6.57;;
25073;SDS011;13066;52.042;5.648;2023-08-08T05:45:48;15.52;;;6.40;;
25073;SDS011;13066;52.042;5.648;2023-08-08T05:48:17;16.00;;;6.18;;
25073;SDS011;13066;52.042;5.648;2023-08-08T05:50:45;14.32;;;5.90;;
25073;SDS011;13066;52.042;5.648;2023-08-08T05:53:13;16.90;;;6.00;;
25073;SDS011;13066;52.042;5.648;2023-08-08T05:55:42;18.23;;;5.82;;
25073;SDS011;13066;52.042;5.648;2023-08-08T05:58:10;14.95;;;5.55;;
25073;SDS011;13066;52.042;5.648;2023-08-08T06:00:40;21.38;;;5.75;;
25073;SDS011;13066;52.042;5.648;2023-08-08T06:03:09;19.00;;;5.82;;
25073;SDS011;13066;52.042;5.648;2023-08-08T06:05:37;15.55;;;5.80;;
25073;SDS011;13066;52.042;5.648;2023-08-08T06:08:05;14.35;;;5.53;;
25073;SDS011;13066;52.042;5.648;2023-08-08T06:10:38;13.75;;;4.65;;
25073;SDS011;13066;52.042;5.648;2023-08-08T06:13:07;13.10;;;4.30;;
25073;SDS011;13066;52.042;5.648;2023-08-08T06:15:35;14.65;;;4.45;;
25073;SDS011;13066;52.042;5.648;2023-08-08T06:18:03;17.15;;;3.90;;
25073;SDS011;13066;52.042;5.648;2023-08-08T06:20:31;12.25;;;3.83;;
25073;SDS011;13066;52.042;5.648;2023-08-08T06:22:59;13.93;;;3.92;;
25073;SDS011;13066;52.042;5.648;2023-08-08T06:25:27;12.75;;;3.38;;
25073;SDS011;13066;52.042;5.648;2023-08-08T06:27:55;12.20;;;3.00;;
25073;SDS011;13066;52.042;5.648;2023-08-08T06:30:25;5.95;;;2.85;;
25073;SDS011;13066;52.042;5.648;2023-08-08T06:32:53;7.30;;;2.55;;
25073;SDS011;13066;52.042;5.648;2023-08-08T06:35:21;11.10;;;2.67;;
25073;SDS011;13066;52.042;5.648;2023-08-08T06:37:49;11.30;;;2.45;;
25073;SDS011;13066;52.042;5.648;2023-08-08T06:40:17;6.53;;;2.42;;
25073;SDS011;13066;52.042;5.648;2023-08-08T06:42:45;10.00;;;2.90;;
25073;SDS011;13066;52.042;5.648;2023-08-08T06:45:13;6.32;;;2.20;;
25073;SDS011;13066;52.042;5.648;2023-08-08T06:47:42;6.32;;;2.10;;
25073;SDS011;13066;52.042;5.648;2023-08-08T06:50:10;13.13;;;2.42;;
25073;SDS011;13066;52.042;5.648;2023-08-08T06:52:38;16.55;;;2.30;;
25073;SDS011;13066;52.042;5.648;2023-08-08T06:55:07;8.60;;;2.00;;
25073;SDS011;13066;52.042;5.648;2023-08-08T06:57:35;10.48;;;2.08;;
25073;SDS011;13066;52.042;5.648;2023-08-08T07:00:04;7.82;;;1.80;;
25073;SDS011;13066;52.042;5.648;2023-08-08T07:02:32;5.85;;;1.90;;
25073;SDS011;13066;52.042;5.648;2023-08-08T07:05:02;9.32;;;2.03;;
25073;SDS011;13066;52.042;5.648;2023-08-08T07:07:31;8.15;;;2.00;;
25073;SDS011;13066;52.042;5.648;2023-08-08T07:09:59;8.75;;;1.90;;
25073;SDS011;13066;52.042;5.648;2023-08-08T07:12:28;7.45;;;2.03;;
25073;SDS011;13066;52.042;5.648;2023-08-08T07:14:56;4.22;;;1.50;;
25073;SDS011;13066;52.042;5.648;2023-08-08T07:17:24;5.32;;;1.60;;
25073;SDS011;13066;52.042;5.648;2023-08-08T07:19:52;2.08;;;1.27;;
25073;SDS011;13066;52.042;5.648;2023-08-08T07:22:21;7.53;;;1.63;;
25073;SDS011;13066;52.042;5.648;2023-08-08T07:24:49;4.38;;;1.52;;
25073;SDS011;13066;52.042;5.648;2023-08-08T07:27:17;5.25;;;1.33;;
25073;SDS011;13066;52.042;5.648;2023-08-08T07:29:45;10.40;;;1.90;;
25073;SDS011;13066;52.042;5.648;2023-08-08T07:32:13;9.25;;;1.80;;
25073;SDS011;13066;52.042;5.648;2023-08-08T07:34:40;6.57;;;1.60;;
25073;SDS011;13066;52.042;5.648;2023-08-08T07:37:08;9.70;;;2.00;;
25073;SDS011;13066;52.042;5.648;2023-08-08T07:39:38;7.07;;;1.77;;
25073;SDS011;13066;52.042;5.648;2023-08-08T07:42:06;4.88;;;1.48;;
25073;SDS011;13066;52.042;5.648;2023-08-08T07:44:34;5.93;;;1.35;;
25073;SDS011;13066;52.042;5.648;2023-08-08T07:47:04;9.00;;;1.55;;
25073;SDS011;13066;52.042;5.648;2023-08-08T07:49:35;4.80;;;1.60;;
25073;SDS011;13066;52.042;5.648;2023-08-08T07:52:04;7.55;;;1.48;;
25073;SDS011;13066;52.042;5.648;2023-08-08T07:54:33;5.95;;;1.38;;
25073;SDS011;13066;52.042;5.648;2023-08-08T07:57:02;4.57;;;1.50;;
25073;SDS011;13066;52.042;5.648;2023-08-08T07:59:31;11.10;;;1.63;;
25073;SDS011;13066;52.042;5.648;2023-08-08T08:01:59;7.97;;;1.20;;
25073;SDS011;13066;52.042;5.648;2023-08-08T08:04:28;2.67;;;1.15;;
25073;SDS011;13066;52.042;5.648;2023-08-08T08:06:56;5.40;;;1.10;;
25073;SDS011;13066;52.042;5.648;2023-08-08T08:09:24;5.38;;;1.02;;
25073;SDS011;13066;52.042;5.648;2023-08-08T08:11:52;5.13;;;1.30;;
25073;SDS011;13066;52.042;5.648;2023-08-08T08:14:21;6.47;;;1.58;;
25073;SDS011;13066;52.042;5.648;2023-08-08T08:16:49;5.22;;;1.35;;
25073;SDS011;13066;52.042;5.648;2023-08-08T08:19:17;3.65;;;1.35;;
25073;SDS011;13066;52.042;5.648;2023-08-08T08:21:44;5.63;;;1.40;;
25073;SDS011;13066;52.042;5.648;2023-08-08T08:24:12;3.40;;;1.30;;
25073;SDS011;13066;52.042;5.648;2023-08-08T08:26:42;4.78;;;1.10;;
25073;SDS011;13066;52.042;5.648;2023-08-08T08:29:10;6.20;;;1.30;;
25073;SDS011;13066;52.042;5.648;2023-08-08T08:31:39;3.35;;;1.30;;
25073;SDS011;13066;52.042;5.648;2023-08-08T08:34:07;4.72;;;1.10;;
25073;SDS011;13066;52.042;5.648;2023-08-08T08:36:35;2.35;;;1.30;;
25073;SDS011;13066;52.042;5.648;2023-08-08T08:39:03;1.70;;;0.80;;
25073;SDS011;13066;52.042;5.648;2023-08-08T08:41:31;5.85;;;1.25;;
25073;SDS011;13066;52.042;5.648;2023-08-08T08:44:03;5.18;;;1.30;;
25073;SDS011;13066;52.042;5.648;2023-08-08T08:46:32;3.63;;;1.17;;
25073;SDS011;13066;52.042;5.648;2023-08-08T08:49:03;6.13;;;1.13;;
25073;SDS011;13066;52.042;5.648;2023-08-08T08:51:35;6.30;;;1.45;;
25073;SDS011;13066;52.042;5.648;2023-08-08T08:54:03;3.58;;;1.20;;
25073;SDS011;13066;52.042;5.648;2023-08-08T08:56:31;4.80;;;1.20;;
25073;SDS011;13066;52.042;5.648;2023-08-08T08:59:00;2.88;;;1.05;;
25073;SDS011;13066;52.042;5.648;2023-08-08T09:01:29;2.58;;;0.80;;
25073;SDS011;13066;52.042;5.648;2023-08-08T09:03:57;6.15;;;0.98;;
25073;SDS011;13066;52.042;5.648;2023-08-08T09:06:27;4.13;;;1.10;;
25073;SDS011;13066;52.042;5.648;2023-08-08T09:08:55;5.57;;;1.10;;
25073;SDS011;13066;52.042;5.648;2023-08-08T09:11:41;4.50;;;1.10;;
25073;SDS011;13066;52.042;5.648;2023-08-08T09:14:14;4.22;;;1.00;;
25073;SDS011;13066;52.042;5.648;2023-08-08T09:16:44;2.03;;;1.00;;
25073;SDS011;13066;52.042;5.648;2023-08-08T09:19:12;2.83;;;0.85;;
25073;SDS011;13066;52.042;5.648;2023-08-08T09:21:42;4.85;;;1.05;;
25073;SDS011;13066;52.042;5.648;2023-08-08T09:24:10;3.00;;;0.90;;
25073;SDS011;13066;52.042;5.648;2023-08-08T09:26:38;6.20;;;1.10;;
25073;SDS011;13066;52.042;5.648;2023-08-08T09:29:06;3.70;;;1.00;;
25073;SDS011;13066;52.042;5.648;2023-08-08T09:31:34;3.63;;;0.90;;
25073;SDS011;13066;52.042;5.648;2023-08-08T09:34:03;1.90;;;0.88;;
25073;SDS011;13066;52.042;5.648;2023-08-08T09:36:31;5.13;;;1.10;;
25073;SDS011;13066;52.042;5.648;2023-08-08T09:39:03;1.27;;;1.00;;
25073;SDS011;13066;52.042;5.648;2023-08-08T09:41:31;4.65;;;1.23;;
25073;SDS011;13066;52.042;5.648;2023-08-08T09:43:59;3.95;;;1.20;;
25073;SDS011;13066;52.042;5.648;2023-08-08T09:46:29;3.10;;;0.93;;
25073;SDS011;13066;52.042;5.648;2023-08-08T09:48:57;2.28;;;0.90;;
25073;SDS011;13066;52.042;5.648;2023-08-08T09:51:25;2.30;;;1.10;;
25073;SDS011;13066;52.042;5.648;2023-08-08T09:53:54;2.67;;;0.90;;
25073;SDS011;13066;52.042;5.648;2023-08-08T09:56:24;4.07;;;1.00;;
25073;SDS011;13066;52.042;5.648;2023-08-08T09:58:53;2.97;;;1.13;;
25073;SDS011;13066;52.042;5.648;2023-08-08T10:01:21;4.28;;;0.90;;
25073;SDS011;13066;52.042;5.648;2023-08-08T10:03:51;3.00;;;1.10;;
25073;SDS011;13066;52.042;5.648;2023-08-08T10:06:19;3.42;;;1.10;;
25073;SDS011;13066;52.042;5.648;2023-08-08T10:08:47;2.72;;;1.13;;
25073;SDS011;13066;52.042;5.648;2023-08-08T10:11:15;6.40;;;1.38;;
25073;SDS011;13066;52.042;5.648;2023-08-08T10:13:48;4.68;;;1.00;;
25073;SDS011;13066;52.042;5.648;2023-08-08T10:16:17;3.45;;;1.05;;
25073;SDS011;13066;52.042;5.648;2023-08-08T10:18:45;1.45;;;0.93;;
25073;SDS011;13066;52.042;5.648;2023-08-08T10:21:14;4.53;;;1.05;;
25073;SDS011;13066;52.042;5.648;2023-08-08T10:23:42;6.72;;;1.30;;
25073;SDS011;13066;52.042;5.648;2023-08-08T10:26:17;1.92;;;1.17;;
25073;SDS011;13066;52.042;5.648;2023-08-08T10:28:54;2.47;;;0.88;;
25073;SDS011;13066;52.042;5.648;2023-08-08T10:31:26;2.65;;;1.00;;
25073;SDS011;13066;52.042;5.648;2023-08-08T10:34:03;2.50;;;1.00;;
25073;SDS011;13066;52.042;5.648;2023-08-08T10:36:48;3.50;;;1.10;;
25073;SDS011;13066;52.042;5.648;2023-08-08T10:39:16;2.60;;;1.15;;
25073;SDS011;13066;52.042;5.648;2023-08-08T10:41:45;2.33;;;1.10;;
25073;SDS011;13066;52.042;5.648;2023-08-08T10:44:21;3.75;;;1.17;;
25073;SDS011;13066;52.042;5.648;2023-08-08T10:46:51;3.72;;;1.10;;
25073;SDS011;13066;52.042;5.648;2023-08-08T10:49:20;2.17;;;1.00;;
25073;SDS011;13066;52.042;5.648;2023-08-08T10:51:48;5.00;;;1.10;;
25073;SDS011;13066;52.042;5.648;2023-08-08T10:54:19;4.93;;;1.20;;
25073;SDS011;13066;52.042;5.648;2023-08-08T10:56:50;3.45;;;1.30;;
25073;SDS011;13066;52.042;5.648;2023-08-08T10:59:20;4.53;;;1.10;;
25073;SDS011;13066;52.042;5.648;2023-08-08T11:01:51;5.35;;;1.30;;
25073;SDS011;13066;52.042;5.648;2023-08-08T11:04:20;1.77;;;1.00;;
25073;SDS011;13066;52.042;5.648;2023-08-08T11:06:50;2.75;;;1.20;;
25073;SDS011;13066;52.042;5.648;2023-08-08T11:09:20;3.45;;;1.10;;
25073;SDS011;13066;52.042;5.648;2023-08-08T11:11:48;2.47;;;1.17;;
25073;SDS011;13066;52.042;5.648;2023-08-08T11:14:17;3.63;;;1.10;;
25073;SDS011;13066;52.042;5.648;2023-08-08T11:16:48;2.60;;;1.30;;
25073;SDS011;13066;52.042;5.648;2023-08-08T11:19:18;4.07;;;1.15;;
25073;SDS011;13066;52.042;5.648;2023-08-08T11:21:46;7.03;;;1.42;;
25073;SDS011;13066;52.042;5.648;2023-08-08T11:24:15;4.85;;;1.45;;
25073;SDS011;13066;52.042;5.648;2023-08-08T11:26:44;6.82;;;1.13;;
25073;SDS011;13066;52.042;5.648;2023-08-08T11:29:14;3.20;;;1.10;;
25073;SDS011;13066;52.042;5.648;2023-08-08T11:31:43;1.55;;;1.13;;
25073;SDS011;13066;52.042;5.648;2023-08-08T11:34:14;1.80;;;1.10;;
25073;SDS011;13066;52.042;5.648;2023-08-08T11:36:44;1.90;;;1.10;;
25073;SDS011;13066;52.042;5.648;2023-08-08T11:39:12;3.08;;;1.35;;
25073;SDS011;13066;52.042;5.648;2023-08-08T11:41:40;5.85;;;1.20;;
25073;SDS011;13066;52.042;5.648;2023-08-08T11:44:09;1.52;;;1.05;;
25073;SDS011;13066;52.042;5.648;2023-08-08T11:46:42;3.50;;;1.02;;
25073;SDS011;13066;52.042;5.648;2023-08-08T11:49:13;3.88;;;1.40;;
25073;SDS011;13066;52.042;5.648;2023-08-08T11:51:42;2.83;;;1.17;;
25073;SDS011;13066;52.042;5.648;2023-08-08T11:54:11;3.17;;;1.23;;
25073;SDS011;13066;52.042;5.648;2023-08-08T11:56:39;2.33;;;1.08;;
25073;SDS011;13066;52.042;5.648;2023-08-08T11:59:07;3.25;;;1.23;;
25073;SDS011;13066;52.042;5.648;2023-08-08T12:01:35;4.68;;;1.33;;
25073;SDS011;13066;52.042;5.648;2023-08-08T12:04:04;3.72;;;1.20;;
25073;SDS011;13066;52.042;5.648;2023-08-08T12:06:37;1.83;;;1.10;;
25073;SDS011;13066;52.042;5.648;2023-08-08T12:09:07;2.40;;;1.40;;
25073;SDS011;13066;52.042;5.648;2023-08-08T12:11:36;3.92;;;1.25;;
25073;SDS011;13066;52.042;5.648;2023-08-08T12:14:07;2.45;;;0.98;;
25073;SDS011;13066;52.042;5.648;2023-08-08T12:16:36;3.58;;;1.00;;
25073;SDS011;13066;52.042;5.648;2023-08-08T12:19:07;4.88;;;1.13;;
25073;SDS011;13066;52.042;5.648;2023-08-08T12:21:35;1.48;;;1.00;;
25073;SDS011;13066;52.042;5.648;2023-08-08T12:24:05;2.63;;;1.10;;
25073;SDS011;13066;52.042;5.648;2023-08-08T12:26:35;4.43;;;1.13;;
25073;SDS011;13066;52.042;5.648;2023-08-08T12:29:03;2.80;;;1.05;;
25073;SDS011;13066;52.042;5.648;2023-08-08T12:31:35;2.30;;;1.10;;
25073;SDS011;13066;52.042;5.648;2023-08-08T12:34:03;1.92;;;1.05;;
25073;SDS011;13066;52.042;5.648;2023-08-08T12:36:32;3.72;;;1.10;;
25073;SDS011;13066;52.042;5.648;2023-08-08T12:39:01;3.45;;;1.00;;
25073;SDS011;13066;52.042;5.648;2023-08-08T12:41:31;7.60;;;1.20;;
25073;SDS011;13066;52.042;5.648;2023-08-08T12:44:00;2.03;;;1.17;;
25073;SDS011;13066;52.042;5.648;2023-08-08T12:46:29;2.63;;;1.00;;
25073;SDS011;13066;52.042;5.648;2023-08-08T12:48:57;13.65;;;2.85;;
25073;SDS011;13066;52.042;5.648;2023-08-08T12:51:25;4.28;;;1.20;;
25073;SDS011;13066;52.042;5.648;2023-08-08T12:53:53;2.83;;;1.02;;
25073;SDS011;13066;52.042;5.648;2023-08-08T12:56:21;4.38;;;1.40;;
25073;SDS011;13066;52.042;5.648;2023-08-08T12:58:50;5.60;;;1.20;;
25073;SDS011;13066;52.042;5.648;2023-08-08T13:01:18;5.38;;;1.20;;
25073;SDS011;13066;52.042;5.648;2023-08-08T13:03:46;2.20;;;1.00;;
25073;SDS011;13066;52.042;5.648;2023-08-08T13:06:34;1.10;;;0.80;;
25073;SDS011;13066;52.042;5.648;2023-08-08T13:09:02;2.15;;;1.13;;
25073;SDS011;13066;52.042;5.648;2023-08-08T13:11:36;5.15;;;1.20;;
25073;SDS011;13066;52.042;5.648;2023-08-08T13:14:05;4.10;;;1.48;;
25073;SDS011;13066;52.042;5.648;2023-08-08T13:16:33;4.25;;;1.00;;
25073;SDS011;13066;52.042;5.648;2023-08-08T13:19:01;3.25;;;1.15;;
25073;SDS011;13066;52.042;5.648;2023-08-08T13:21:30;8.23;;;1.10;;
25073;SDS011;13066;52.042;5.648;2023-08-08T13:23:57;2.53;;;0.90;;
25073;SDS011;13066;52.042;5.648;2023-08-08T13:26:25;4.97;;;1.20;;
25073;SDS011;13066;52.042;5.648;2023-08-08T13:28:54;4.07;;;1.33;;
25073;SDS011;13066;52.042;5.648;2023-08-08T13:31:23;4.05;;;1.38;;
25073;SDS011;13066;52.042;5.648;2023-08-08T13:33:51;4.32;;;1.30;;
25073;SDS011;13066;52.042;5.648;2023-08-08T13:36:19;5.28;;;1.20;;
25073;SDS011;13066;52.042;5.648;2023-08-08T13:38:47;4.00;;;1.30;;
25073;SDS011;13066;52.042;5.648;2023-08-08T13:41:15;2.95;;;1.20;;
25073;SDS011;13066;52.042;5.648;2023-08-08T13:43:43;1.42;;;0.93;;
25073;SDS011;13066;52.042;5.648;2023-08-08T13:46:11;3.88;;;1.20;;
25073;SDS011;13066;52.042;5.648;2023-08-08T13:48:40;3.28;;;1.40;;
25073;SDS011;13066;52.042;5.648;2023-08-08T13:51:08;3.15;;;1.20;;
25073;SDS011;13066;52.042;5.648;2023-08-08T13:53:36;4.10;;;1.33;;
25073;SDS011;13066;52.042;5.648;2023-08-08T13:56:04;4.07;;;1.45;;
25073;SDS011;13066;52.042;5.648;2023-08-08T13:58:32;6.07;;;1.20;;
25073;SDS011;13066;52.042;5.648;2023-08-08T14:01:00;2.17;;;1.17;;
25073;SDS011;13066;52.042;5.648;2023-08-08T14:03:27;7.82;;;1.45;;
25073;SDS011;13066;52.042;5.648;2023-08-08T14:05:57;3.20;;;1.10;;
25073;SDS011;13066;52.042;5.648;2023-08-08T14:08:25;7.05;;;1.17;;
25073;SDS011;13066;52.042;5.648;2023-08-08T14:10:53;3.80;;;1.30;;
25073;SDS011;13066;52.042;5.648;2023-08-08T14:13:21;3.15;;;1.38;;
25073;SDS011;13066;52.042;5.648;2023-08-08T14:15:49;9.80;;;1.25;;
25073;SDS011;13066;52.042;5.648;2023-08-08T14:18:18;2.60;;;1.30;;
25073;SDS011;13066;52.042;5.648;2023-08-08T14:20:46;4.13;;;1.02;;
25073;SDS011;13066;52.042;5.648;2023-08-08T14:23:15;3.55;;;1.35;;
25073;SDS011;13066;52.042;5.648;2023-08-08T14:25:43;4.10;;;1.25;;
25073;SDS011;13066;52.042;5.648;2023-08-08T14:28:11;2.28;;;1.25;;
25073;SDS011;13066;52.042;5.648;2023-08-08T14:30:39;4.40;;;1.33;;
25073;SDS011;13066;52.042;5.648;2023-08-08T14:33:07;3.85;;;1.27;;
25073;SDS011;13066;52.042;5.648;2023-08-08T14:35:35;3.90;;;1.00;;
25073;SDS011;13066;52.042;5.648;2023-08-08T14:38:03;2.92;;;1.30;;
25073;SDS011;13066;52.042;5.648;2023-08-08T14:40:33;6.57;;;1.17;;
25073;SDS011;13066;52.042;5.648;2023-08-08T14:43:03;4.65;;;1.27;;
25073;SDS011;13066;52.042;5.648;2023-08-08T14:45:36;3.70;;;1.15;;
25073;SDS011;13066;52.042;5.648;2023-08-08T14:48:05;5.68;;;1.13;;
25073;SDS011;13066;52.042;5.648;2023-08-08T14:50:33;2.35;;;1.30;;